createdAt,value
2022-10-17T00:00:07.730Z,69.92
2022-10-17T00:02:34.485Z,69.80
2022-10-17T00:05:01.173Z,69.79
2022-10-17T00:07:28.139Z,70.02
2022-10-17T00:09:55.068Z,69.84
2022-10-17T00:12:21.805Z,70.01
2022-10-17T00:14:48.525Z,70.11
2022-10-17T00:17:15.676Z,70.00
2022-10-17T00:19:42.398Z,70.00
2022-10-17T00:22:09.111Z,69.96
2022-10-17T00:24:35.850Z,70.10
2022-10-17T00:27:03.013Z,70.13
2022-10-17T00:29:29.724Z,70.13
2022-10-17T00:31:57.140Z,70.18
2022-10-17T00:34:24.702Z,70.22
2022-10-17T00:36:51.428Z,70.37
2022-10-17T00:39:18.166Z,70.28
2022-10-17T00:41:44.841Z,70.20
2022-10-17T00:44:29.762Z,70.17
2022-10-17T00:47:05.025Z,70.11
2022-10-17T00:49:34.157Z,70.15
2022-10-17T00:52:03.730Z,70.17
2022-10-17T00:54:35.371Z,70.10
2022-10-17T00:57:02.371Z,70.25
2022-10-17T00:59:29.656Z,70.11
2022-10-17T01:02:23.122Z,70.32
2022-10-17T01:04:51.392Z,70.34
2022-10-17T01:07:18.105Z,70.50
2022-10-17T01:09:45.867Z,70.38
2022-10-17T01:12:25.796Z,70.35
2022-10-17T01:15:20.390Z,70.29
2022-10-17T01:18:18.000Z,70.27
2022-10-17T01:21:02.072Z,70.44
2022-10-17T01:23:53.711Z,70.52
2022-10-17T01:26:45.504Z,70.51
2022-10-17T01:29:40.190Z,70.58
2022-10-17T01:32:24.051Z,70.76
2022-10-17T01:35:21.524Z,70.50
2022-10-17T01:37:48.773Z,70.57
2022-10-17T01:40:21.528Z,70.45
2022-10-17T01:42:57.868Z,70.48
2022-10-17T01:45:29.880Z,70.47
2022-10-17T01:48:00.453Z,70.45
2022-10-17T01:50:36.396Z,70.37
2022-10-17T01:53:08.051Z,70.50
2022-10-17T01:55:40.751Z,70.47
2022-10-17T01:58:14.739Z,70.22
2022-10-17T02:00:43.066Z,70.28
2022-10-17T02:03:13.578Z,70.36
2022-10-17T02:05:41.650Z,70.33
2022-10-17T02:08:08.558Z,70.18
2022-10-17T02:10:46.696Z,70.09
2022-10-17T02:13:41.278Z,70.23
2022-10-17T02:16:29.664Z,70.23
2022-10-17T02:19:08.560Z,70.41
2022-10-17T02:21:53.563Z,70.48
2022-10-17T02:24:33.687Z,70.51
2022-10-17T02:27:43.828Z,70.50
2022-10-17T02:30:26.958Z,70.66
2022-10-17T02:32:59.922Z,70.57
2022-10-17T02:35:30.525Z,70.54
2022-10-17T02:37:58.374Z,70.37
2022-10-17T02:40:25.877Z,70.66
2022-10-17T02:42:52.864Z,70.40
2022-10-17T02:45:19.910Z,70.63
2022-10-17T02:47:56.119Z,70.61
2022-10-17T02:50:46.413Z,70.75
2022-10-17T02:53:17.540Z,70.87
2022-10-17T02:55:50.365Z,70.79
2022-10-17T02:58:21.730Z,70.97
2022-10-17T03:00:48.818Z,70.87
2022-10-17T03:03:20.774Z,70.78
2022-10-17T03:05:47.475Z,71.16
2022-10-17T03:08:14.290Z,71.05
2022-10-17T03:10:41.028Z,70.90
2022-10-17T03:13:07.746Z,70.91
2022-10-17T03:15:34.468Z,71.04
2022-10-17T03:18:01.405Z,70.94
2022-10-17T03:20:28.260Z,70.80
2022-10-17T03:22:54.988Z,70.95
2022-10-17T03:25:21.674Z,70.76
2022-10-17T03:27:48.393Z,71.02
2022-10-17T03:30:15.239Z,70.98
2022-10-17T03:32:41.925Z,70.80
2022-10-17T03:35:14.026Z,71.05
2022-10-17T03:37:41.942Z,70.61
2022-10-17T03:40:08.961Z,70.97
2022-10-17T03:42:35.699Z,70.99
2022-10-17T03:45:02.475Z,70.83
2022-10-17T03:47:29.524Z,71.11
2022-10-17T03:49:56.373Z,70.93
2022-10-17T03:52:23.099Z,71.00
2022-10-17T03:54:51.052Z,71.07
2022-10-17T03:57:19.019Z,70.88
2022-10-17T03:59:45.727Z,70.98
2022-10-17T04:02:12.466Z,71.01
2022-10-17T04:04:39.139Z,71.13
2022-10-17T04:07:05.837Z,71.05
2022-10-17T04:09:32.521Z,71.04
2022-10-17T04:11:59.237Z,70.98
2022-10-17T04:14:25.997Z,70.84
2022-10-17T04:16:53.489Z,70.87
2022-10-17T04:19:20.243Z,70.75
2022-10-17T04:21:47.113Z,70.73
2022-10-17T04:24:13.792Z,70.72
2022-10-17T04:26:40.512Z,70.79
2022-10-17T04:29:07.228Z,70.48
2022-10-17T04:31:33.986Z,70.77
2022-10-17T04:34:00.711Z,70.57
2022-10-17T04:36:27.407Z,70.87
2022-10-17T04:38:54.392Z,70.47
2022-10-17T04:41:21.242Z,70.70
2022-10-17T04:43:50.973Z,70.68
2022-10-17T04:46:18.262Z,70.66
2022-10-17T04:48:44.989Z,70.70
2022-10-17T04:51:13.803Z,70.60
2022-10-17T04:53:41.726Z,71.02
2022-10-17T04:56:10.490Z,71.04
2022-10-17T04:58:38.088Z,71.28
2022-10-17T05:01:10.350Z,71.33
2022-10-17T05:03:37.341Z,71.29
2022-10-17T05:06:09.004Z,71.33
2022-10-17T05:08:36.137Z,71.52
2022-10-17T05:11:03.349Z,71.65
2022-10-17T05:13:30.075Z,71.38
2022-10-17T05:16:02.860Z,71.66
2022-10-17T05:18:29.560Z,71.56
2022-10-17T05:20:57.179Z,71.45
2022-10-17T05:23:23.916Z,71.63
2022-10-17T05:25:55.564Z,71.64
2022-10-17T05:28:22.939Z,71.90
2022-10-17T05:30:49.885Z,71.96
2022-10-17T05:33:16.615Z,71.85
2022-10-17T05:35:43.350Z,71.68
2022-10-17T05:38:10.037Z,71.76
2022-10-17T05:40:38.456Z,71.85
2022-10-17T05:43:05.378Z,71.65
2022-10-17T05:45:32.238Z,71.84
2022-10-17T05:47:58.981Z,71.53
2022-10-17T05:50:25.703Z,71.89
2022-10-17T05:52:55.764Z,71.99
2022-10-17T05:55:22.877Z,72.04
2022-10-17T05:57:52.486Z,71.76
2022-10-17T06:00:19.997Z,71.99
2022-10-17T06:02:47.173Z,72.17
2022-10-17T06:05:14.297Z,72.19
2022-10-17T06:07:41.157Z,72.25
2022-10-17T06:10:08.273Z,72.28
2022-10-17T06:12:35.039Z,72.31
2022-10-17T06:15:01.781Z,72.39
2022-10-17T06:17:30.203Z,72.57
2022-10-17T06:19:57.386Z,72.64
2022-10-17T06:22:24.101Z,72.73
2022-10-17T06:24:52.521Z,72.86
2022-10-17T06:27:19.801Z,73.07
2022-10-17T06:29:47.550Z,73.05
2022-10-17T06:32:15.320Z,73.04
2022-10-17T06:34:42.163Z,73.36
2022-10-17T06:37:08.843Z,73.37
2022-10-17T06:39:35.819Z,73.42
2022-10-17T06:42:03.576Z,73.45
2022-10-17T06:44:31.458Z,73.47
2022-10-17T06:46:59.418Z,73.60
2022-10-17T06:49:26.710Z,73.61
2022-10-17T06:51:53.749Z,73.76
2022-10-17T06:54:20.598Z,73.97
2022-10-17T06:56:47.345Z,73.84
2022-10-17T06:59:15.474Z,73.86
2022-10-17T07:01:46.123Z,74.04
2022-10-17T07:04:14.308Z,74.08
2022-10-17T07:06:41.013Z,74.18
2022-10-17T07:09:07.714Z,74.17
2022-10-17T07:11:37.202Z,74.01
2022-10-17T07:14:04.181Z,74.28
2022-10-17T07:16:30.890Z,74.15
2022-10-17T07:18:57.600Z,73.87
2022-10-17T07:21:24.355Z,73.84
2022-10-17T07:23:51.064Z,73.95
2022-10-17T07:26:18.536Z,73.94
2022-10-17T07:28:46.805Z,73.87
2022-10-17T07:31:16.305Z,73.96
2022-10-17T07:33:44.068Z,74.05
2022-10-17T07:36:11.351Z,74.14
2022-10-17T07:38:38.643Z,74.24
2022-10-17T07:41:06.688Z,74.05
2022-10-17T07:43:33.800Z,73.86
2022-10-17T07:46:01.365Z,74.02
2022-10-17T07:48:28.057Z,73.88
2022-10-17T07:50:54.820Z,74.00
2022-10-17T07:53:21.546Z,73.96
2022-10-17T07:55:49.987Z,73.69
2022-10-17T07:58:16.934Z,73.27
2022-10-17T08:00:43.778Z,73.45
2022-10-17T08:03:10.898Z,73.30
2022-10-17T08:05:37.665Z,72.92
2022-10-17T08:08:04.439Z,72.71
2022-10-17T08:10:31.161Z,72.75
2022-10-17T08:12:58.434Z,72.74
2022-10-17T08:15:29.392Z,72.42
2022-10-17T08:17:58.696Z,72.23
2022-10-17T08:20:25.412Z,72.76
2022-10-17T08:22:55.473Z,72.63
2022-10-17T08:25:22.847Z,72.55
2022-10-17T08:27:49.834Z,72.67
2022-10-17T08:30:16.871Z,72.51
2022-10-17T08:32:43.720Z,72.51
2022-10-17T08:35:10.585Z,72.60
2022-10-17T08:37:37.298Z,72.60
2022-10-17T08:40:04.588Z,72.50
2022-10-17T08:42:46.452Z,72.53
2022-10-17T08:45:44.255Z,72.30
2022-10-17T08:48:14.619Z,72.29
2022-10-17T08:50:50.326Z,72.27
2022-10-17T08:53:26.872Z,72.25
2022-10-17T08:55:55.015Z,72.29
2022-10-17T08:58:24.254Z,71.92
2022-10-17T09:01:30.617Z,72.08
2022-10-17T09:04:13.634Z,71.77
2022-10-17T09:07:05.604Z,71.48
2022-10-17T09:09:38.397Z,71.47
2022-10-17T09:12:16.092Z,71.27
2022-10-17T09:14:59.375Z,71.50
2022-10-17T09:17:43.048Z,71.02
2022-10-17T09:20:18.302Z,70.94
2022-10-17T09:23:02.825Z,70.98
2022-10-17T09:25:42.705Z,70.78
2022-10-17T09:28:38.199Z,70.83
2022-10-17T09:31:06.810Z,70.78
2022-10-17T09:33:53.729Z,70.63
2022-10-17T09:36:30.253Z,70.52
2022-10-17T09:39:00.271Z,70.31
2022-10-17T09:41:45.521Z,70.28
2022-10-17T09:44:31.684Z,70.22
2022-10-17T09:47:14.100Z,70.37
2022-10-17T09:49:46.823Z,70.20
2022-10-17T09:52:22.445Z,70.27
2022-10-17T09:54:51.699Z,70.54
2022-10-17T09:57:20.168Z,70.42
2022-10-17T10:00:00.262Z,70.43
2022-10-17T10:02:29.666Z,70.15
2022-10-17T10:05:06.106Z,70.27
2022-10-17T10:07:35.823Z,70.19
2022-10-17T10:10:05.502Z,70.14
2022-10-17T10:12:35.158Z,69.96
2022-10-17T10:15:01.866Z,70.33
2022-10-17T10:17:41.824Z,69.84
2022-10-17T10:20:28.696Z,69.62
2022-10-17T10:23:24.752Z,69.81
2022-10-17T10:25:55.339Z,69.59
2022-10-17T10:28:34.458Z,69.59
2022-10-17T10:31:04.632Z,69.79
2022-10-17T10:33:32.409Z,69.63
2022-10-17T10:36:04.680Z,69.66
2022-10-17T10:38:33.618Z,69.62
2022-10-17T10:41:08.492Z,69.51
2022-10-17T10:43:42.217Z,69.46
2022-10-17T10:46:17.290Z,69.58
2022-10-17T10:49:00.060Z,69.29
2022-10-17T10:51:43.149Z,69.49
2022-10-17T10:54:20.236Z,69.41
2022-10-17T10:56:52.688Z,69.51
2022-10-17T10:59:35.554Z,69.52
2022-10-17T11:02:14.510Z,69.39
2022-10-17T11:04:52.850Z,69.35
2022-10-17T11:07:28.511Z,69.52
2022-10-17T11:10:04.078Z,69.69
2022-10-17T11:12:35.605Z,69.41
2022-10-17T11:15:22.192Z,69.49
2022-10-17T11:17:56.937Z,69.51
2022-10-17T11:20:36.945Z,69.48
2022-10-17T11:23:31.444Z,69.80
2022-10-17T11:26:03.778Z,69.54
2022-10-17T11:28:30.832Z,69.76
2022-10-17T11:31:07.203Z,69.76
2022-10-17T11:33:47.241Z,69.95
2022-10-17T11:36:15.109Z,69.83
2022-10-17T11:38:51.199Z,70.01
2022-10-17T11:41:32.511Z,69.85
2022-10-17T11:44:09.031Z,69.78
2022-10-17T11:46:36.372Z,69.99
2022-10-17T11:49:17.426Z,69.84
2022-10-17T11:52:55.531Z,69.75
2022-10-17T11:55:29.400Z,69.54
2022-10-17T11:58:41.057Z,69.73
2022-10-17T12:01:16.069Z,69.77
2022-10-17T12:04:01.723Z,69.52
2022-10-17T12:06:34.499Z,69.66
2022-10-17T12:09:32.111Z,69.58
2022-10-17T12:12:02.408Z,69.53
2022-10-17T12:14:48.697Z,69.58
2022-10-17T12:17:29.175Z,69.51
2022-10-17T12:20:23.389Z,69.41
2022-10-17T12:22:52.556Z,69.26
2022-10-17T12:25:22.181Z,69.26
2022-10-17T12:27:50.116Z,69.12
2022-10-17T12:30:25.111Z,69.52
2022-10-17T12:33:05.704Z,69.32
2022-10-17T12:35:35.734Z,69.40
2022-10-17T12:38:23.644Z,69.34
2022-10-17T12:40:55.501Z,69.28
2022-10-17T12:43:28.268Z,69.33
2022-10-17T12:46:02.159Z,69.47
2022-10-17T12:48:34.755Z,69.44
2022-10-17T12:54:02.715Z,69.33
2022-10-17T12:56:38.739Z,69.67
2022-10-17T12:59:24.952Z,69.56
2022-10-17T13:01:56.605Z,69.41
2022-10-17T13:04:24.220Z,69.56
2022-10-17T13:06:58.645Z,69.71
2022-10-17T13:09:51.887Z,69.52
2022-10-17T13:12:24.062Z,69.35
2022-10-17T13:14:52.646Z,69.46
2022-10-17T13:17:22.278Z,69.57
2022-10-17T13:19:51.760Z,69.53
2022-10-17T13:22:24.335Z,69.59
2022-10-17T13:24:53.070Z,69.34
2022-10-17T13:27:25.722Z,69.49
2022-10-17T13:29:56.241Z,69.57
2022-10-17T13:32:24.934Z,69.57
2022-10-17T13:35:10.905Z,69.61
2022-10-17T13:37:40.022Z,69.92
2022-10-17T13:40:40.453Z,69.60
2022-10-17T13:43:02.022Z,69.79
2022-10-17T13:45:31.374Z,69.68
2022-10-17T13:48:06.830Z,69.57
2022-10-17T13:50:44.862Z,69.67
2022-10-17T13:53:29.488Z,69.74
2022-10-17T13:56:28.771Z,69.88
2022-10-17T13:58:59.329Z,69.81
2022-10-17T14:01:28.116Z,69.91
2022-10-17T14:04:07.687Z,69.82
2022-10-17T14:06:44.020Z,69.98
2022-10-17T14:09:32.161Z,70.06
2022-10-17T14:12:02.793Z,70.11
2022-10-17T14:14:32.129Z,69.82
2022-10-17T14:17:13.574Z,69.98
2022-10-17T14:19:40.408Z,70.24
2022-10-17T14:22:17.430Z,70.26
2022-10-17T14:24:44.628Z,70.15
2022-10-17T14:27:31.473Z,70.25
2022-10-17T14:30:03.547Z,70.46
2022-10-17T14:35:24.369Z,70.43
2022-10-17T14:37:54.273Z,70.23
2022-10-17T14:40:25.199Z,70.65
2022-10-17T14:42:54.028Z,70.54
2022-10-17T14:45:27.338Z,70.65
2022-10-17T14:47:55.728Z,70.63
2022-10-17T14:50:25.482Z,70.52
2022-10-17T14:53:10.588Z,70.59
2022-10-17T14:55:39.387Z,70.82
2022-10-17T14:58:17.013Z,70.90
2022-10-17T15:00:43.736Z,70.90
2022-10-17T15:03:10.476Z,70.73
2022-10-17T15:05:37.297Z,71.07
2022-10-17T15:08:03.999Z,70.72
2022-10-17T15:10:36.424Z,70.71
2022-10-17T15:13:26.572Z,71.08
2022-10-17T15:15:51.937Z,70.80
2022-10-17T15:18:18.991Z,71.19
2022-10-17T15:20:45.674Z,70.81
2022-10-17T15:23:12.509Z,71.25
2022-10-17T15:25:39.744Z,70.88
2022-10-17T15:28:06.442Z,70.92
2022-10-17T15:30:36.385Z,71.06
2022-10-17T15:33:03.501Z,71.13
2022-10-17T15:35:30.347Z,71.28
2022-10-17T15:37:57.178Z,71.32
2022-10-17T15:40:28.101Z,71.20
2022-10-17T15:42:56.305Z,71.29
2022-10-17T15:45:23.638Z,71.68
2022-10-17T15:47:52.693Z,71.51
2022-10-17T15:50:20.315Z,71.43
2022-10-17T15:52:47.227Z,71.50
2022-10-17T15:55:13.984Z,71.72
2022-10-17T15:57:43.225Z,71.58
2022-10-17T16:00:16.909Z,71.71
2022-10-17T16:02:43.957Z,71.71
2022-10-17T16:05:29.110Z,71.72
2022-10-17T16:07:56.721Z,71.84
2022-10-17T16:10:25.431Z,71.88
2022-10-17T16:12:52.136Z,71.89
2022-10-17T16:15:25.047Z,72.07
2022-10-17T16:17:52.755Z,72.11
2022-10-17T16:20:20.323Z,72.19
2022-10-17T16:22:47.675Z,72.14
2022-10-17T16:25:19.500Z,72.16
2022-10-17T16:27:47.533Z,72.23
2022-10-17T16:30:14.353Z,72.30
2022-10-17T16:32:41.081Z,72.33
2022-10-17T16:35:08.356Z,72.56
2022-10-17T16:37:35.860Z,72.58
2022-10-17T16:40:04.309Z,72.67
2022-10-17T16:42:31.197Z,72.90
2022-10-17T16:44:58.274Z,72.90
2022-10-17T16:47:25.021Z,73.07
2022-10-17T16:49:51.739Z,73.08
2022-10-17T16:52:18.433Z,73.02
2022-10-17T16:54:45.278Z,73.01
2022-10-17T16:57:12.041Z,73.39
2022-10-17T16:59:38.737Z,73.49
2022-10-17T17:02:05.646Z,73.45
2022-10-17T17:04:32.344Z,73.50
2022-10-17T17:06:59.056Z,73.72
2022-10-17T17:09:25.786Z,73.71
2022-10-17T17:11:52.564Z,73.93
2022-10-17T17:14:19.336Z,73.86
2022-10-17T17:16:46.120Z,73.74
2022-10-17T17:19:15.038Z,73.76
2022-10-17T17:21:47.472Z,73.85
2022-10-17T17:24:14.183Z,73.97
2022-10-17T17:26:41.508Z,74.02
2022-10-17T17:29:09.476Z,73.93
2022-10-17T17:31:38.836Z,73.99
2022-10-17T17:34:05.832Z,73.87
2022-10-17T17:36:34.409Z,73.92
2022-10-17T17:39:03.950Z,73.87
2022-10-17T17:41:30.741Z,73.99
2022-10-17T17:43:57.504Z,74.14
2022-10-17T17:46:25.001Z,73.89
2022-10-17T17:48:52.958Z,74.10
2022-10-17T17:51:26.899Z,74.25
2022-10-17T17:53:56.545Z,73.99
2022-10-17T17:56:28.319Z,74.09
2022-10-17T17:58:57.468Z,74.21
2022-10-17T18:01:27.632Z,73.82
2022-10-17T18:03:55.580Z,74.05
2022-10-17T18:06:22.954Z,73.90
2022-10-17T18:08:52.936Z,74.00
2022-10-17T18:11:21.990Z,73.74
2022-10-17T18:13:56.771Z,73.60
2022-10-17T18:16:24.088Z,73.95
2022-10-17T18:18:50.812Z,74.02
2022-10-17T18:21:17.961Z,74.09
2022-10-17T18:23:46.182Z,74.00
2022-10-17T18:26:14.345Z,74.15
2022-10-17T18:31:18.901Z,74.40
2022-10-17T18:33:46.075Z,74.12
2022-10-17T18:36:14.792Z,74.58
2022-10-17T18:38:41.797Z,74.40
2022-10-17T18:41:11.405Z,74.17
2022-10-17T18:43:39.866Z,74.22
2022-10-17T18:46:15.523Z,73.99
2022-10-17T18:48:47.082Z,74.32
2022-10-17T18:51:15.818Z,74.16
2022-10-17T18:53:44.571Z,73.94
2022-10-17T18:56:11.937Z,73.86
2022-10-17T18:58:39.637Z,73.97
2022-10-17T19:01:18.040Z,73.70
2022-10-17T19:03:46.283Z,73.87
2022-10-17T19:06:14.380Z,73.88
2022-10-17T19:08:41.818Z,73.73
2022-10-17T19:11:28.335Z,73.96
2022-10-17T19:14:03.240Z,73.80
2022-10-17T19:16:33.270Z,73.89
2022-10-17T19:19:03.261Z,73.70
2022-10-17T19:21:30.239Z,73.81
2022-10-17T19:23:59.399Z,73.69
2022-10-17T19:26:27.746Z,73.73
2022-10-17T19:28:54.581Z,73.66
2022-10-17T19:31:26.525Z,73.60
2022-10-17T19:33:54.778Z,73.54
2022-10-17T19:36:25.385Z,73.61
2022-10-17T19:38:55.456Z,73.62
2022-10-17T19:41:22.713Z,73.90
2022-10-17T19:43:49.598Z,74.07
2022-10-17T19:46:18.445Z,74.03
2022-10-17T19:48:45.607Z,73.88
2022-10-17T19:51:15.614Z,74.09
2022-10-17T19:53:42.798Z,73.91
2022-10-17T19:56:10.615Z,74.08
2022-10-17T19:58:44.453Z,73.95
2022-10-17T20:01:13.766Z,74.32
2022-10-17T20:03:40.605Z,74.26
2022-10-17T20:06:07.912Z,74.21
2022-10-17T20:08:34.744Z,74.50
2022-10-17T20:11:07.308Z,74.40
2022-10-17T20:13:37.358Z,74.38
2022-10-17T20:16:05.966Z,74.62
2022-10-17T20:18:33.080Z,74.59
2022-10-17T20:21:08.940Z,74.70
2022-10-17T20:23:36.263Z,74.78
2022-10-17T20:26:08.690Z,74.81
2022-10-17T20:28:52.368Z,74.46
2022-10-17T20:31:19.561Z,74.58
2022-10-17T20:33:46.354Z,74.51
2022-10-17T20:36:14.494Z,74.75
2022-10-17T20:38:41.202Z,74.63
2022-10-17T20:41:09.417Z,74.50
2022-10-17T20:43:37.844Z,74.53
2022-10-17T20:46:22.796Z,74.43
2022-10-17T20:48:54.310Z,74.62
2022-10-17T20:51:21.320Z,74.57
2022-10-17T20:53:48.499Z,74.47
2022-10-17T20:56:21.951Z,74.32
2022-10-17T20:58:56.564Z,74.32
2022-10-17T21:01:24.396Z,74.32
2022-10-17T21:03:51.253Z,74.32
2022-10-17T21:06:18.740Z,74.32
2022-10-17T21:08:46.711Z,74.21
2022-10-17T21:11:14.865Z,74.63
2022-10-17T21:13:44.311Z,74.54
2022-10-17T21:16:13.080Z,74.32
2022-10-17T21:18:40.411Z,74.18
2022-10-17T21:21:18.701Z,74.38
2022-10-17T21:23:47.450Z,74.39
2022-10-17T21:26:14.890Z,74.47
2022-10-17T21:28:43.104Z,74.16
2022-10-17T21:31:11.334Z,74.28
2022-10-17T21:33:38.375Z,74.38
2022-10-17T21:36:05.370Z,74.33
2022-10-17T21:38:32.134Z,74.21
2022-10-17T21:40:58.825Z,74.05
2022-10-17T21:43:25.529Z,73.83
2022-10-17T21:45:52.216Z,73.76
2022-10-17T21:48:19.013Z,73.74
2022-10-17T21:50:45.802Z,73.73
2022-10-17T21:53:12.540Z,73.95
2022-10-17T21:55:39.267Z,73.86
2022-10-17T21:58:06.028Z,74.06
2022-10-17T22:00:32.744Z,74.00
2022-10-17T22:03:01.062Z,74.05
2022-10-17T22:05:27.829Z,74.04
2022-10-17T22:07:54.522Z,73.83
2022-10-17T22:10:21.533Z,74.15
2022-10-17T22:12:48.233Z,73.88
2022-10-17T22:17:46.592Z,73.64
2022-10-17T22:20:13.305Z,74.07
2022-10-17T22:22:40.006Z,73.93
2022-10-17T22:25:07.043Z,73.65
2022-10-17T22:27:33.792Z,74.12
2022-10-17T22:30:00.493Z,73.63
2022-10-17T22:32:27.205Z,73.94
2022-10-17T22:34:53.886Z,73.99
2022-10-17T22:37:20.612Z,73.83
2022-10-17T22:39:47.364Z,73.95
2022-10-17T22:42:14.106Z,73.80
2022-10-17T22:44:40.924Z,73.94
2022-10-17T22:47:07.650Z,73.80
2022-10-17T22:49:34.333Z,73.91
2022-10-17T22:52:01.075Z,73.96
2022-10-17T22:54:27.782Z,73.43
2022-10-17T22:56:54.505Z,74.06
2022-10-17T22:59:21.350Z,73.65
2022-10-17T23:01:48.063Z,73.74
2022-10-17T23:04:14.816Z,73.97
2022-10-17T23:06:41.518Z,73.75
2022-10-17T23:09:08.231Z,73.73
2022-10-17T23:11:34.912Z,73.56
2022-10-17T23:14:01.667Z,73.83
2022-10-17T23:16:30.862Z,73.62
2022-10-17T23:18:57.865Z,73.75
2022-10-17T23:21:24.565Z,73.73
2022-10-17T23:23:51.249Z,73.50
2022-10-17T23:26:17.996Z,73.55
2022-10-17T23:28:44.719Z,73.62
2022-10-17T23:31:19.388Z,73.35
2022-10-17T23:33:47.744Z,73.54
2022-10-17T23:36:17.283Z,73.46
2022-10-17T23:38:45.128Z,73.47
2022-10-17T23:41:12.357Z,73.22
2022-10-17T23:43:39.053Z,73.14
2022-10-17T23:46:06.586Z,73.02
2022-10-17T23:48:33.639Z,73.32
2022-10-17T23:51:00.315Z,73.17
2022-10-17T23:53:27.104Z,72.95
2022-10-17T23:55:53.801Z,73.10
2022-10-17T23:58:20.729Z,72.84
